sensor_id;sensor_type;location;lat;lon;timestamp;P1;durP1;ratioP1;P2;durP2;ratioP2
12906;SDS011;6521;50.498;8.474;2024-02-16T00:02:29;3.83;;;2.50;;
12906;SDS011;6521;50.498;8.474;2024-02-16T00:05:00;4.93;;;2.17;;
12906;SDS011;6521;50.498;8.474;2024-02-16T00:07:31;3.37;;;2.17;;
12906;SDS011;6521;50.498;8.474;2024-02-16T00:10:01;4.13;;;2.10;;
12906;SDS011;6521;50.498;8.474;2024-02-16T00:12:34;3.53;;;2.07;;
12906;SDS011;6521;50.498;8.474;2024-02-16T00:15:06;2.77;;;2.30;;
12906;SDS011;6521;50.498;8.474;2024-02-16T00:17:38;2.43;;;1.93;;
12906;SDS011;6521;50.498;8.474;2024-02-16T00:20:08;3.10;;;2.27;;
12906;SDS011;6521;50.498;8.474;2024-02-16T00:22:42;5.73;;;2.50;;
12906;SDS011;6521;50.498;8.474;2024-02-16T00:25:13;6.10;;;2.80;;
12906;SDS011;6521;50.498;8.474;2024-02-16T00:27:45;6.83;;;3.30;;
12906;SDS011;6521;50.498;8.474;2024-02-16T00:30:16;3.93;;;3.00;;
12906;SDS011;6521;50.498;8.474;2024-02-16T00:32:48;5.03;;;3.23;;
12906;SDS011;6521;50.498;8.474;2024-02-16T00:35:19;4.63;;;2.87;;
12906;SDS011;6521;50.498;8.474;2024-02-16T00:37:49;5.53;;;2.77;;
12906;SDS011;6521;50.498;8.474;2024-02-16T00:40:20;4.33;;;2.57;;
12906;SDS011;6521;50.498;8.474;2024-02-16T00:42:52;6.43;;;3.00;;
12906;SDS011;6521;50.498;8.474;2024-02-16T00:45:22;4.53;;;2.60;;
12906;SDS011;6521;50.498;8.474;2024-02-16T00:47:55;4.10;;;2.27;;
12906;SDS011;6521;50.498;8.474;2024-02-16T00:50:27;6.00;;;2.10;;
12906;SDS011;6521;50.498;8.474;2024-02-16T00:52:58;3.50;;;2.40;;
12906;SDS011;6521;50.498;8.474;2024-02-16T00:55:30;7.07;;;2.50;;
12906;SDS011;6521;50.498;8.474;2024-02-16T00:58:01;4.10;;;2.63;;
12906;SDS011;6521;50.498;8.474;2024-02-16T01:00:32;4.33;;;2.93;;
12906;SDS011;6521;50.498;8.474;2024-02-16T01:03:03;7.53;;;3.67;;
12906;SDS011;6521;50.498;8.474;2024-02-16T01:05:34;3.07;;;2.43;;
12906;SDS011;6521;50.498;8.474;2024-02-16T01:08:08;7.20;;;2.80;;
12906;SDS011;6521;50.498;8.474;2024-02-16T01:10:39;4.27;;;2.57;;
12906;SDS011;6521;50.498;8.474;2024-02-16T01:13:09;6.43;;;2.73;;
12906;SDS011;6521;50.498;8.474;2024-02-16T01:15:40;2.87;;;2.50;;
12906;SDS011;6521;50.498;8.474;2024-02-16T01:18:13;4.70;;;2.40;;
12906;SDS011;6521;50.498;8.474;2024-02-16T01:20:44;4.30;;;2.50;;
12906;SDS011;6521;50.498;8.474;2024-02-16T01:23:15;5.57;;;2.53;;
12906;SDS011;6521;50.498;8.474;2024-02-16T01:25:45;2.93;;;2.60;;
12906;SDS011;6521;50.498;8.474;2024-02-16T01:28:17;4.00;;;2.40;;
12906;SDS011;6521;50.498;8.474;2024-02-16T01:30:47;3.70;;;2.00;;
12906;SDS011;6521;50.498;8.474;2024-02-16T01:33:19;3.07;;;2.23;;
12906;SDS011;6521;50.498;8.474;2024-02-16T01:35:50;5.07;;;2.10;;
12906;SDS011;6521;50.498;8.474;2024-02-16T01:38:20;6.40;;;2.30;;
12906;SDS011;6521;50.498;8.474;2024-02-16T01:40:53;6.03;;;2.33;;
12906;SDS011;6521;50.498;8.474;2024-02-16T01:43:25;7.10;;;2.70;;
12906;SDS011;6521;50.498;8.474;2024-02-16T01:45:58;3.53;;;2.10;;
12906;SDS011;6521;50.498;8.474;2024-02-16T01:48:30;6.00;;;2.50;;
12906;SDS011;6521;50.498;8.474;2024-02-16T01:51:01;7.93;;;2.87;;
12906;SDS011;6521;50.498;8.474;2024-02-16T01:53:33;5.63;;;2.83;;
12906;SDS011;6521;50.498;8.474;2024-02-16T01:56:05;5.33;;;2.30;;
12906;SDS011;6521;50.498;8.474;2024-02-16T01:58:36;3.80;;;2.47;;
12906;SDS011;6521;50.498;8.474;2024-02-16T02:01:08;2.43;;;2.23;;
12906;SDS011;6521;50.498;8.474;2024-02-16T02:03:38;4.93;;;2.37;;
12906;SDS011;6521;50.498;8.474;2024-02-16T02:06:10;5.30;;;2.50;;
12906;SDS011;6521;50.498;8.474;2024-02-16T02:08:40;4.70;;;2.53;;
12906;SDS011;6521;50.498;8.474;2024-02-16T02:11:11;3.70;;;2.37;;
12906;SDS011;6521;50.498;8.474;2024-02-16T02:13:43;4.90;;;2.50;;
12906;SDS011;6521;50.498;8.474;2024-02-16T02:16:14;5.13;;;2.77;;
12906;SDS011;6521;50.498;8.474;2024-02-16T02:18:46;6.50;;;2.17;;
12906;SDS011;6521;50.498;8.474;2024-02-16T02:21:16;3.10;;;2.27;;
12906;SDS011;6521;50.498;8.474;2024-02-16T02:23:48;3.07;;;2.23;;
12906;SDS011;6521;50.498;8.474;2024-02-16T02:26:18;5.57;;;2.30;;
12906;SDS011;6521;50.498;8.474;2024-02-16T02:28:49;2.67;;;2.40;;
12906;SDS011;6521;50.498;8.474;2024-02-16T02:31:20;4.87;;;2.60;;
12906;SDS011;6521;50.498;8.474;2024-02-16T02:33:51;4.70;;;2.93;;
12906;SDS011;6521;50.498;8.474;2024-02-16T02:36:22;3.70;;;2.50;;
12906;SDS011;6521;50.498;8.474;2024-02-16T02:38:53;4.83;;;3.03;;
12906;SDS011;6521;50.498;8.474;2024-02-16T02:41:24;5.40;;;3.13;;
12906;SDS011;6521;50.498;8.474;2024-02-16T02:43:55;6.27;;;3.13;;
12906;SDS011;6521;50.498;8.474;2024-02-16T02:46:25;3.73;;;2.63;;
12906;SDS011;6521;50.498;8.474;2024-02-16T02:48:59;4.43;;;2.77;;
12906;SDS011;6521;50.498;8.474;2024-02-16T02:51:32;6.13;;;2.50;;
12906;SDS011;6521;50.498;8.474;2024-02-16T02:54:03;5.40;;;2.57;;
12906;SDS011;6521;50.498;8.474;2024-02-16T02:56:34;5.13;;;2.50;;
12906;SDS011;6521;50.498;8.474;2024-02-16T02:59:05;4.30;;;2.40;;
12906;SDS011;6521;50.498;8.474;2024-02-16T03:01:36;4.13;;;2.30;;
12906;SDS011;6521;50.498;8.474;2024-02-16T03:04:08;3.80;;;2.30;;
12906;SDS011;6521;50.498;8.474;2024-02-16T03:06:39;4.70;;;2.63;;
12906;SDS011;6521;50.498;8.474;2024-02-16T03:09:13;3.67;;;2.27;;
12906;SDS011;6521;50.498;8.474;2024-02-16T03:11:44;5.37;;;2.27;;
12906;SDS011;6521;50.498;8.474;2024-02-16T03:14:16;3.80;;;2.27;;
12906;SDS011;6521;50.498;8.474;2024-02-16T03:16:47;6.43;;;2.77;;
12906;SDS011;6521;50.498;8.474;2024-02-16T03:19:19;9.07;;;2.90;;
12906;SDS011;6521;50.498;8.474;2024-02-16T03:21:50;2.83;;;2.60;;
12906;SDS011;6521;50.498;8.474;2024-02-16T03:24:24;2.50;;;2.30;;
12906;SDS011;6521;50.498;8.474;2024-02-16T03:26:55;4.37;;;2.60;;
12906;SDS011;6521;50.498;8.474;2024-02-16T03:29:26;3.53;;;2.50;;
12906;SDS011;6521;50.498;8.474;2024-02-16T03:31:57;5.37;;;2.73;;
12906;SDS011;6521;50.498;8.474;2024-02-16T03:34:31;4.90;;;2.80;;
12906;SDS011;6521;50.498;8.474;2024-02-16T03:37:02;4.40;;;2.47;;
12906;SDS011;6521;50.498;8.474;2024-02-16T03:39:33;6.07;;;3.00;;
12906;SDS011;6521;50.498;8.474;2024-02-16T03:42:03;3.53;;;2.63;;
12906;SDS011;6521;50.498;8.474;2024-02-16T03:44:34;2.90;;;2.40;;
12906;SDS011;6521;50.498;8.474;2024-02-16T03:47:07;5.57;;;3.00;;
12906;SDS011;6521;50.498;8.474;2024-02-16T03:49:39;4.90;;;2.50;;
12906;SDS011;6521;50.498;8.474;2024-02-16T03:52:09;6.03;;;2.77;;
12906;SDS011;6521;50.498;8.474;2024-02-16T03:54:40;3.77;;;2.43;;
12906;SDS011;6521;50.498;8.474;2024-02-16T03:57:12;3.97;;;2.47;;
12906;SDS011;6521;50.498;8.474;2024-02-16T03:59:43;5.30;;;2.70;;
12906;SDS011;6521;50.498;8.474;2024-02-16T04:02:14;5.17;;;2.67;;
12906;SDS011;6521;50.498;8.474;2024-02-16T04:04:45;4.00;;;2.73;;
12906;SDS011;6521;50.498;8.474;2024-02-16T04:07:16;3.80;;;2.60;;
12906;SDS011;6521;50.498;8.474;2024-02-16T04:09:47;9.30;;;2.70;;
12906;SDS011;6521;50.498;8.474;2024-02-16T04:12:17;4.00;;;2.80;;
12906;SDS011;6521;50.498;8.474;2024-02-16T04:14:49;6.10;;;2.67;;
12906;SDS011;6521;50.498;8.474;2024-02-16T04:17:22;4.07;;;2.80;;
12906;SDS011;6521;50.498;8.474;2024-02-16T04:19:55;4.20;;;2.60;;
12906;SDS011;6521;50.498;8.474;2024-02-16T04:22:26;4.30;;;2.63;;
12906;SDS011;6521;50.498;8.474;2024-02-16T04:24:56;3.67;;;2.50;;
12906;SDS011;6521;50.498;8.474;2024-02-16T04:27:27;4.07;;;2.80;;
12906;SDS011;6521;50.498;8.474;2024-02-16T04:30:06;5.70;;;2.83;;
12906;SDS011;6521;50.498;8.474;2024-02-16T04:32:38;5.17;;;3.07;;
12906;SDS011;6521;50.498;8.474;2024-02-16T04:35:08;5.00;;;2.20;;
12906;SDS011;6521;50.498;8.474;2024-02-16T04:37:42;6.03;;;3.13;;
12906;SDS011;6521;50.498;8.474;2024-02-16T04:40:13;6.37;;;3.00;;
12906;SDS011;6521;50.498;8.474;2024-02-16T04:42:43;3.93;;;2.77;;
12906;SDS011;6521;50.498;8.474;2024-02-16T04:45:14;3.63;;;2.80;;
12906;SDS011;6521;50.498;8.474;2024-02-16T04:47:45;3.77;;;3.00;;
12906;SDS011;6521;50.498;8.474;2024-02-16T04:50:16;5.17;;;2.93;;
12906;SDS011;6521;50.498;8.474;2024-02-16T04:52:47;3.90;;;3.07;;
12906;SDS011;6521;50.498;8.474;2024-02-16T04:55:19;5.23;;;2.70;;
12906;SDS011;6521;50.498;8.474;2024-02-16T04:57:50;3.87;;;2.80;;
12906;SDS011;6521;50.498;8.474;2024-02-16T05:00:21;6.90;;;2.90;;
12906;SDS011;6521;50.498;8.474;2024-02-16T05:02:52;2.80;;;2.50;;
12906;SDS011;6521;50.498;8.474;2024-02-16T05:05:23;4.43;;;2.63;;
12906;SDS011;6521;50.498;8.474;2024-02-16T05:07:55;2.93;;;2.53;;
12906;SDS011;6521;50.498;8.474;2024-02-16T05:10:26;7.03;;;3.20;;
12906;SDS011;6521;50.498;8.474;2024-02-16T05:12:56;4.90;;;2.53;;
12906;SDS011;6521;50.498;8.474;2024-02-16T05:15:28;6.33;;;3.23;;
12906;SDS011;6521;50.498;8.474;2024-02-16T05:17:59;4.67;;;3.30;;
12906;SDS011;6521;50.498;8.474;2024-02-16T05:20:30;3.03;;;2.60;;
12906;SDS011;6521;50.498;8.474;2024-02-16T05:23:01;6.07;;;2.97;;
12906;SDS011;6521;50.498;8.474;2024-02-16T05:25:33;4.00;;;2.70;;
12906;SDS011;6521;50.498;8.474;2024-02-16T05:28:04;7.43;;;3.50;;
12906;SDS011;6521;50.498;8.474;2024-02-16T05:30:36;6.43;;;4.00;;
12906;SDS011;6521;50.498;8.474;2024-02-16T05:33:06;5.50;;;3.27;;
12906;SDS011;6521;50.498;8.474;2024-02-16T05:35:37;6.53;;;3.47;;
12906;SDS011;6521;50.498;8.474;2024-02-16T05:38:10;9.37;;;4.00;;
12906;SDS011;6521;50.498;8.474;2024-02-16T05:40:51;3.93;;;3.03;;
12906;SDS011;6521;50.498;8.474;2024-02-16T05:43:26;5.00;;;3.17;;
12906;SDS011;6521;50.498;8.474;2024-02-16T05:45:57;4.07;;;3.10;;
12906;SDS011;6521;50.498;8.474;2024-02-16T05:48:28;5.47;;;3.37;;
12906;SDS011;6521;50.498;8.474;2024-02-16T05:51:00;4.87;;;3.53;;
12906;SDS011;6521;50.498;8.474;2024-02-16T05:53:32;6.20;;;3.30;;
12906;SDS011;6521;50.498;8.474;2024-02-16T05:56:04;5.90;;;3.60;;
12906;SDS011;6521;50.498;8.474;2024-02-16T05:58:36;11.03;;;3.60;;
12906;SDS011;6521;50.498;8.474;2024-02-16T06:01:08;3.97;;;2.93;;
12906;SDS011;6521;50.498;8.474;2024-02-16T06:03:43;6.00;;;3.03;;
12906;SDS011;6521;50.498;8.474;2024-02-16T06:06:13;5.03;;;2.93;;
12906;SDS011;6521;50.498;8.474;2024-02-16T06:08:45;6.83;;;3.43;;
12906;SDS011;6521;50.498;8.474;2024-02-16T06:11:16;11.30;;;2.80;;
12906;SDS011;6521;50.498;8.474;2024-02-16T06:13:47;4.83;;;3.30;;
12906;SDS011;6521;50.498;8.474;2024-02-16T06:16:17;10.23;;;3.07;;
12906;SDS011;6521;50.498;8.474;2024-02-16T06:18:48;8.47;;;4.30;;
12906;SDS011;6521;50.498;8.474;2024-02-16T06:21:19;15.17;;;3.87;;
12906;SDS011;6521;50.498;8.474;2024-02-16T06:23:52;7.87;;;4.07;;
12906;SDS011;6521;50.498;8.474;2024-02-16T06:26:25;6.37;;;4.70;;
12906;SDS011;6521;50.498;8.474;2024-02-16T06:28:56;6.93;;;4.97;;
12906;SDS011;6521;50.498;8.474;2024-02-16T06:31:26;9.00;;;4.07;;
12906;SDS011;6521;50.498;8.474;2024-02-16T06:33:57;6.60;;;3.63;;
12906;SDS011;6521;50.498;8.474;2024-02-16T06:36:30;6.97;;;5.03;;
12906;SDS011;6521;50.498;8.474;2024-02-16T06:39:00;6.40;;;5.20;;
12906;SDS011;6521;50.498;8.474;2024-02-16T06:41:31;8.03;;;5.27;;
12906;SDS011;6521;50.498;8.474;2024-02-16T06:44:02;7.67;;;4.60;;
12906;SDS011;6521;50.498;8.474;2024-02-16T06:46:34;5.40;;;4.03;;
12906;SDS011;6521;50.498;8.474;2024-02-16T06:49:05;4.87;;;3.40;;
12906;SDS011;6521;50.498;8.474;2024-02-16T06:51:36;7.43;;;3.97;;
12906;SDS011;6521;50.498;8.474;2024-02-16T06:54:07;6.47;;;4.10;;
12906;SDS011;6521;50.498;8.474;2024-02-16T06:56:39;8.23;;;4.70;;
12906;SDS011;6521;50.498;8.474;2024-02-16T06:59:10;5.63;;;4.20;;
12906;SDS011;6521;50.498;8.474;2024-02-16T07:01:48;7.70;;;4.20;;
12906;SDS011;6521;50.498;8.474;2024-02-16T07:04:19;6.17;;;4.63;;
12906;SDS011;6521;50.498;8.474;2024-02-16T07:06:50;9.80;;;4.27;;
12906;SDS011;6521;50.498;8.474;2024-02-16T07:09:21;5.37;;;4.30;;
12906;SDS011;6521;50.498;8.474;2024-02-16T07:11:52;4.27;;;3.67;;
12906;SDS011;6521;50.498;8.474;2024-02-16T07:14:24;5.53;;;4.00;;
12906;SDS011;6521;50.498;8.474;2024-02-16T07:16:55;5.07;;;3.97;;
12906;SDS011;6521;50.498;8.474;2024-02-16T07:19:30;12.00;;;3.97;;
12906;SDS011;6521;50.498;8.474;2024-02-16T07:22:04;6.37;;;4.10;;
12906;SDS011;6521;50.498;8.474;2024-02-16T07:24:36;6.50;;;3.87;;
12906;SDS011;6521;50.498;8.474;2024-02-16T07:27:09;12.23;;;4.27;;
12906;SDS011;6521;50.498;8.474;2024-02-16T07:29:52;6.20;;;4.47;;
12906;SDS011;6521;50.498;8.474;2024-02-16T07:32:25;6.17;;;4.60;;
12906;SDS011;6521;50.498;8.474;2024-02-16T07:34:57;6.93;;;4.93;;
12906;SDS011;6521;50.498;8.474;2024-02-16T07:37:28;8.83;;;5.60;;
12906;SDS011;6521;50.498;8.474;2024-02-16T07:39:59;6.93;;;5.40;;
12906;SDS011;6521;50.498;8.474;2024-02-16T07:42:30;9.83;;;6.17;;
12906;SDS011;6521;50.498;8.474;2024-02-16T07:45:01;6.77;;;5.67;;
12906;SDS011;6521;50.498;8.474;2024-02-16T07:47:35;6.90;;;4.77;;
12906;SDS011;6521;50.498;8.474;2024-02-16T07:50:11;6.53;;;4.23;;
12906;SDS011;6521;50.498;8.474;2024-02-16T07:52:45;6.33;;;3.80;;
12906;SDS011;6521;50.498;8.474;2024-02-16T07:55:15;6.00;;;4.00;;
12906;SDS011;6521;50.498;8.474;2024-02-16T07:57:51;7.10;;;4.23;;
12906;SDS011;6521;50.498;8.474;2024-02-16T08:00:22;7.47;;;3.90;;
12906;SDS011;6521;50.498;8.474;2024-02-16T08:02:53;4.40;;;4.00;;
12906;SDS011;6521;50.498;8.474;2024-02-16T08:05:25;11.30;;;5.07;;
12906;SDS011;6521;50.498;8.474;2024-02-16T08:07:57;9.37;;;4.40;;
12906;SDS011;6521;50.498;8.474;2024-02-16T08:10:28;3.97;;;3.43;;
12906;SDS011;6521;50.498;8.474;2024-02-16T08:13:01;4.00;;;3.60;;
12906;SDS011;6521;50.498;8.474;2024-02-16T08:15:32;4.63;;;4.20;;
12906;SDS011;6521;50.498;8.474;2024-02-16T08:18:07;4.80;;;4.10;;
12906;SDS011;6521;50.498;8.474;2024-02-16T08:20:37;5.60;;;3.90;;
12906;SDS011;6521;50.498;8.474;2024-02-16T08:23:09;4.50;;;3.73;;
12906;SDS011;6521;50.498;8.474;2024-02-16T08:25:39;6.10;;;3.70;;
12906;SDS011;6521;50.498;8.474;2024-02-16T08:28:12;4.03;;;3.63;;
12906;SDS011;6521;50.498;8.474;2024-02-16T08:30:43;4.83;;;4.30;;
12906;SDS011;6521;50.498;8.474;2024-02-16T08:33:14;6.50;;;4.30;;
12906;SDS011;6521;50.498;8.474;2024-02-16T08:35:47;5.73;;;4.13;;
12906;SDS011;6521;50.498;8.474;2024-02-16T08:38:18;4.80;;;3.60;;
12906;SDS011;6521;50.498;8.474;2024-02-16T08:40:49;6.77;;;3.70;;
12906;SDS011;6521;50.498;8.474;2024-02-16T08:43:22;4.40;;;3.43;;
12906;SDS011;6521;50.498;8.474;2024-02-16T08:46:00;9.03;;;4.10;;
12906;SDS011;6521;50.498;8.474;2024-02-16T08:48:31;4.93;;;3.70;;
12906;SDS011;6521;50.498;8.474;2024-02-16T08:51:01;7.80;;;3.90;;
12906;SDS011;6521;50.498;8.474;2024-02-16T08:53:32;4.73;;;3.90;;
12906;SDS011;6521;50.498;8.474;2024-02-16T08:56:08;5.80;;;3.80;;
12906;SDS011;6521;50.498;8.474;2024-02-16T08:58:42;3.87;;;3.30;;
12906;SDS011;6521;50.498;8.474;2024-02-16T09:01:14;4.73;;;3.70;;
12906;SDS011;6521;50.498;8.474;2024-02-16T09:03:46;6.10;;;4.00;;
12906;SDS011;6521;50.498;8.474;2024-02-16T09:06:17;5.03;;;4.00;;
12906;SDS011;6521;50.498;8.474;2024-02-16T09:08:49;4.40;;;3.77;;
12906;SDS011;6521;50.498;8.474;2024-02-16T09:11:20;4.77;;;3.87;;
12906;SDS011;6521;50.498;8.474;2024-02-16T09:13:51;6.37;;;4.03;;
12906;SDS011;6521;50.498;8.474;2024-02-16T09:16:21;6.93;;;3.63;;
12906;SDS011;6521;50.498;8.474;2024-02-16T09:18:57;4.63;;;3.90;;
12906;SDS011;6521;50.498;8.474;2024-02-16T09:21:29;7.63;;;5.27;;
12906;SDS011;6521;50.498;8.474;2024-02-16T09:24:00;6.43;;;3.27;;
12906;SDS011;6521;50.498;8.474;2024-02-16T09:26:31;5.07;;;3.53;;
12906;SDS011;6521;50.498;8.474;2024-02-16T09:29:06;4.40;;;4.00;;
12906;SDS011;6521;50.498;8.474;2024-02-16T09:31:37;5.17;;;3.73;;
12906;SDS011;6521;50.498;8.474;2024-02-16T09:34:09;5.77;;;4.00;;
12906;SDS011;6521;50.498;8.474;2024-02-16T09:36:40;6.43;;;3.67;;
12906;SDS011;6521;50.498;8.474;2024-02-16T09:39:11;4.80;;;4.27;;
12906;SDS011;6521;50.498;8.474;2024-02-16T09:41:42;5.50;;;3.57;;
12906;SDS011;6521;50.498;8.474;2024-02-16T09:44:16;6.10;;;4.07;;
12906;SDS011;6521;50.498;8.474;2024-02-16T09:46:50;5.03;;;4.53;;
12906;SDS011;6521;50.498;8.474;2024-02-16T09:49:25;4.55;;;3.95;;
12906;SDS011;6521;50.498;8.474;2024-02-16T09:51:59;5.47;;;3.97;;
12906;SDS011;6521;50.498;8.474;2024-02-16T09:54:33;6.20;;;4.33;;
12906;SDS011;6521;50.498;8.474;2024-02-16T09:57:04;6.63;;;3.80;;
12906;SDS011;6521;50.498;8.474;2024-02-16T09:59:38;6.10;;;3.77;;
12906;SDS011;6521;50.498;8.474;2024-02-16T10:02:10;6.72;;;3.67;;
12906;SDS011;6521;50.498;8.474;2024-02-16T10:04:41;5.20;;;3.65;;
12906;SDS011;6521;50.498;8.474;2024-02-16T10:07:11;4.78;;;3.88;;
12906;SDS011;6521;50.498;8.474;2024-02-16T10:09:45;7.63;;;4.05;;
12906;SDS011;6521;50.498;8.474;2024-02-16T10:12:19;10.25;;;3.85;;
12906;SDS011;6521;50.498;8.474;2024-02-16T10:14:55;5.97;;;3.80;;
12906;SDS011;6521;50.498;8.474;2024-02-16T10:17:26;4.07;;;3.43;;
12906;SDS011;6521;50.498;8.474;2024-02-16T10:20:00;6.30;;;3.35;;
12906;SDS011;6521;50.498;8.474;2024-02-16T10:22:36;4.00;;;3.10;;
12906;SDS011;6521;50.498;8.474;2024-02-16T10:25:10;5.13;;;3.92;;
12906;SDS011;6521;50.498;8.474;2024-02-16T10:27:45;7.28;;;5.45;;
12906;SDS011;6521;50.498;8.474;2024-02-16T10:30:17;8.48;;;3.30;;
12906;SDS011;6521;50.498;8.474;2024-02-16T10:32:49;6.15;;;3.50;;
12906;SDS011;6521;50.498;8.474;2024-02-16T10:35:21;6.13;;;3.70;;
12906;SDS011;6521;50.498;8.474;2024-02-16T10:37:54;7.15;;;2.80;;
12906;SDS011;6521;50.498;8.474;2024-02-16T10:40:30;4.82;;;2.80;;
12906;SDS011;6521;50.498;8.474;2024-02-16T10:43:04;5.97;;;2.80;;
12906;SDS011;6521;50.498;8.474;2024-02-16T10:45:39;4.15;;;2.72;;
12906;SDS011;6521;50.498;8.474;2024-02-16T10:48:13;6.43;;;3.22;;
12906;SDS011;6521;50.498;8.474;2024-02-16T10:50:46;5.72;;;3.00;;
12906;SDS011;6521;50.498;8.474;2024-02-16T10:53:27;6.55;;;3.25;;
12906;SDS011;6521;50.498;8.474;2024-02-16T10:56:00;4.95;;;2.72;;
12906;SDS011;6521;50.498;8.474;2024-02-16T10:58:35;4.97;;;2.90;;
12906;SDS011;6521;50.498;8.474;2024-02-16T11:01:08;5.35;;;2.33;;
12906;SDS011;6521;50.498;8.474;2024-02-16T11:03:45;5.40;;;2.85;;
12906;SDS011;6521;50.498;8.474;2024-02-16T11:06:16;3.38;;;2.78;;
12906;SDS011;6521;50.498;8.474;2024-02-16T11:08:53;4.60;;;2.50;;
12906;SDS011;6521;50.498;8.474;2024-02-16T11:11:24;6.55;;;3.28;;
12906;SDS011;6521;50.498;8.474;2024-02-16T11:13:55;4.90;;;3.13;;
12906;SDS011;6521;50.498;8.474;2024-02-16T11:16:26;3.65;;;2.47;;
12906;SDS011;6521;50.498;8.474;2024-02-16T11:18:59;6.95;;;2.83;;
12906;SDS011;6521;50.498;8.474;2024-02-16T11:21:34;6.38;;;4.75;;
12906;SDS011;6521;50.498;8.474;2024-02-16T11:24:08;4.35;;;2.85;;
12906;SDS011;6521;50.498;8.474;2024-02-16T11:26:42;9.20;;;4.20;;
12906;SDS011;6521;50.498;8.474;2024-02-16T11:29:15;5.32;;;2.47;;
12906;SDS011;6521;50.498;8.474;2024-02-16T11:31:45;5.65;;;2.40;;
12906;SDS011;6521;50.498;8.474;2024-02-16T11:34:23;4.82;;;3.08;;
12906;SDS011;6521;50.498;8.474;2024-02-16T11:36:55;5.55;;;3.00;;
12906;SDS011;6521;50.498;8.474;2024-02-16T11:39:28;4.22;;;3.17;;
12906;SDS011;6521;50.498;8.474;2024-02-16T11:42:06;4.03;;;2.78;;
12906;SDS011;6521;50.498;8.474;2024-02-16T11:44:51;8.60;;;3.28;;
12906;SDS011;6521;50.498;8.474;2024-02-16T11:47:24;7.15;;;4.72;;
12906;SDS011;6521;50.498;8.474;2024-02-16T11:50:02;6.90;;;3.28;;
12906;SDS011;6521;50.498;8.474;2024-02-16T11:52:46;5.30;;;3.22;;
12906;SDS011;6521;50.498;8.474;2024-02-16T11:55:17;4.00;;;3.00;;
12906;SDS011;6521;50.498;8.474;2024-02-16T11:57:48;15.35;;;2.75;;
12906;SDS011;6521;50.498;8.474;2024-02-16T12:00:21;4.40;;;2.72;;
12906;SDS011;6521;50.498;8.474;2024-02-16T12:02:59;7.80;;;3.17;;
12906;SDS011;6521;50.498;8.474;2024-02-16T12:05:31;5.13;;;2.80;;
12906;SDS011;6521;50.498;8.474;2024-02-16T12:08:02;4.30;;;2.65;;
12906;SDS011;6521;50.498;8.474;2024-02-16T12:10:34;5.28;;;3.00;;
12906;SDS011;6521;50.498;8.474;2024-02-16T12:13:09;3.72;;;2.75;;
12906;SDS011;6521;50.498;8.474;2024-02-16T12:15:40;6.50;;;2.80;;
12906;SDS011;6521;50.498;8.474;2024-02-16T12:18:18;5.80;;;2.78;;
12906;SDS011;6521;50.498;8.474;2024-02-16T12:20:57;4.85;;;2.58;;
12906;SDS011;6521;50.498;8.474;2024-02-16T12:23:31;4.95;;;3.00;;
12906;SDS011;6521;50.498;8.474;2024-02-16T12:26:06;8.70;;;3.22;;
12906;SDS011;6521;50.498;8.474;2024-02-16T12:28:37;4.45;;;2.78;;
12906;SDS011;6521;50.498;8.474;2024-02-16T12:31:07;5.95;;;2.80;;
12906;SDS011;6521;50.498;8.474;2024-02-16T12:33:40;7.82;;;3.30;;
12906;SDS011;6521;50.498;8.474;2024-02-16T12:36:11;6.13;;;3.55;;
12906;SDS011;6521;50.498;8.474;2024-02-16T12:38:41;6.53;;;3.30;;
12906;SDS011;6521;50.498;8.474;2024-02-16T12:41:12;6.57;;;3.00;;
12906;SDS011;6521;50.498;8.474;2024-02-16T12:43:43;6.82;;;2.72;;
12906;SDS011;6521;50.498;8.474;2024-02-16T12:46:16;13.32;;;4.88;;
12906;SDS011;6521;50.498;8.474;2024-02-16T12:48:47;8.73;;;4.47;;
12906;SDS011;6521;50.498;8.474;2024-02-16T12:51:18;5.55;;;3.40;;
12906;SDS011;6521;50.498;8.474;2024-02-16T12:53:49;5.25;;;2.70;;
12906;SDS011;6521;50.498;8.474;2024-02-16T12:56:20;8.40;;;3.92;;
12906;SDS011;6521;50.498;8.474;2024-02-16T12:58:51;5.70;;;3.90;;
12906;SDS011;6521;50.498;8.474;2024-02-16T13:01:24;3.85;;;3.10;;
12906;SDS011;6521;50.498;8.474;2024-02-16T13:03:55;13.18;;;2.80;;
12906;SDS011;6521;50.498;8.474;2024-02-16T13:06:26;5.28;;;2.85;;
12906;SDS011;6521;50.498;8.474;2024-02-16T13:08:57;5.72;;;3.53;;
12906;SDS011;6521;50.498;8.474;2024-02-16T13:11:28;5.80;;;3.63;;
12906;SDS011;6521;50.498;8.474;2024-02-16T13:13:59;7.32;;;3.50;;
12906;SDS011;6521;50.498;8.474;2024-02-16T13:16:30;5.93;;;2.47;;
12906;SDS011;6521;50.498;8.474;2024-02-16T13:19:01;7.43;;;2.53;;
12906;SDS011;6521;50.498;8.474;2024-02-16T13:21:35;6.43;;;2.78;;
12906;SDS011;6521;50.498;8.474;2024-02-16T13:24:06;4.88;;;2.55;;
12906;SDS011;6521;50.498;8.474;2024-02-16T13:26:37;9.13;;;4.53;;
12906;SDS011;6521;50.498;8.474;2024-02-16T13:29:08;5.78;;;3.67;;
12906;SDS011;6521;50.498;8.474;2024-02-16T13:31:41;6.05;;;3.25;;
12906;SDS011;6521;50.498;8.474;2024-02-16T13:34:12;5.88;;;3.13;;
12906;SDS011;6521;50.498;8.474;2024-02-16T13:36:45;11.13;;;5.97;;
12906;SDS011;6521;50.498;8.474;2024-02-16T13:39:15;5.13;;;4.45;;
12906;SDS011;6521;50.498;8.474;2024-02-16T13:41:48;9.45;;;3.55;;
12906;SDS011;6521;50.498;8.474;2024-02-16T13:44:21;9.25;;;3.20;;
12906;SDS011;6521;50.498;8.474;2024-02-16T13:46:51;6.03;;;3.35;;
12906;SDS011;6521;50.498;8.474;2024-02-16T13:49:30;15.10;;;9.52;;
12906;SDS011;6521;50.498;8.474;2024-02-16T13:52:02;7.07;;;3.97;;
12906;SDS011;6521;50.498;8.474;2024-02-16T13:54:35;5.60;;;3.42;;
12906;SDS011;6521;50.498;8.474;2024-02-16T13:57:07;7.30;;;4.05;;
12906;SDS011;6521;50.498;8.474;2024-02-16T13:59:38;9.82;;;4.00;;
12906;SDS011;6521;50.498;8.474;2024-02-16T14:02:09;9.40;;;4.18;;
12906;SDS011;6521;50.498;8.474;2024-02-16T14:04:40;8.63;;;4.40;;
12906;SDS011;6521;50.498;8.474;2024-02-16T14:07:11;5.85;;;3.60;;
12906;SDS011;6521;50.498;8.474;2024-02-16T14:09:42;7.82;;;4.32;;
12906;SDS011;6521;50.498;8.474;2024-02-16T14:12:13;8.23;;;5.72;;
12906;SDS011;6521;50.498;8.474;2024-02-16T14:14:45;13.15;;;6.78;;
12906;SDS011;6521;50.498;8.474;2024-02-16T14:17:19;5.20;;;3.28;;
12906;SDS011;6521;50.498;8.474;2024-02-16T14:19:52;6.70;;;3.47;;
12906;SDS011;6521;50.498;8.474;2024-02-16T14:22:23;7.93;;;4.30;;
12906;SDS011;6521;50.498;8.474;2024-02-16T14:24:54;10.45;;;6.03;;
12906;SDS011;6521;50.498;8.474;2024-02-16T14:27:25;10.05;;;5.28;;
12906;SDS011;6521;50.498;8.474;2024-02-16T14:29:59;9.52;;;4.60;;
12906;SDS011;6521;50.498;8.474;2024-02-16T14:32:30;6.68;;;4.13;;
12906;SDS011;6521;50.498;8.474;2024-02-16T14:35:01;8.85;;;3.67;;
12906;SDS011;6521;50.498;8.474;2024-02-16T14:37:32;13.85;;;10.05;;
12906;SDS011;6521;50.498;8.474;2024-02-16T14:40:03;11.77;;;5.25;;
12906;SDS011;6521;50.498;8.474;2024-02-16T14:42:35;5.90;;;4.55;;
12906;SDS011;6521;50.498;8.474;2024-02-16T14:45:08;13.68;;;6.28;;
12906;SDS011;6521;50.498;8.474;2024-02-16T14:47:41;11.68;;;4.70;;
12906;SDS011;6521;50.498;8.474;2024-02-16T14:50:11;10.32;;;4.25;;
12906;SDS011;6521;50.498;8.474;2024-02-16T14:52:43;9.63;;;4.25;;
12906;SDS011;6521;50.498;8.474;2024-02-16T14:55:14;9.68;;;4.45;;
12906;SDS011;6521;50.498;8.474;2024-02-16T14:57:45;8.27;;;4.70;;
12906;SDS011;6521;50.498;8.474;2024-02-16T15:00:16;9.20;;;6.63;;
12906;SDS011;6521;50.498;8.474;2024-02-16T15:02:47;10.93;;;4.38;;
12906;SDS011;6521;50.498;8.474;2024-02-16T15:05:18;8.32;;;3.40;;
12906;SDS011;6521;50.498;8.474;2024-02-16T15:07:51;6.13;;;3.83;;
12906;SDS011;6521;50.498;8.474;2024-02-16T15:10:21;8.45;;;4.85;;
12906;SDS011;6521;50.498;8.474;2024-02-16T15:12:52;10.40;;;4.07;;
12906;SDS011;6521;50.498;8.474;2024-02-16T15:15:23;7.55;;;3.97;;
12906;SDS011;6521;50.498;8.474;2024-02-16T15:17:54;4.85;;;3.35;;
12906;SDS011;6521;50.498;8.474;2024-02-16T15:20:26;6.90;;;3.13;;
12906;SDS011;6521;50.498;8.474;2024-02-16T15:22:57;10.45;;;3.58;;
12906;SDS011;6521;50.498;8.474;2024-02-16T15:25:28;7.07;;;3.60;;
12906;SDS011;6521;50.498;8.474;2024-02-16T15:28:01;5.20;;;3.47;;
12906;SDS011;6521;50.498;8.474;2024-02-16T15:30:33;10.60;;;3.85;;